Terminal Aerodrome Forecast
Issued by NWS Mt. Holly, NJ

Home | Current Version | Previous Version | Text Only | Print | Product List | Glossary On
Versions: 1 2 3 4 5 6 7 8 9 10 11 12 13 14 15 16 17 18 19 20 21 22 23 24
309
FTUS41 KPHI 081120
TAFACY
TAF
KACY 081120Z 0812/0912 28003KT P6SM FEW050 BKN150
     FM081600 29011G20KT P6SM SCT060
     FM090300 29010KT P6SM FEW100=

USA.gov is the U.S. government's official web portal to all federal, state and local government web resources and services.